createdAt,value
2023-02-28T00:00:45.014Z,11.68
2023-02-28T00:03:17.043Z,12.80
2023-02-28T00:05:48.876Z,14.65
2023-02-28T00:08:20.602Z,15.45
2023-02-28T00:10:52.298Z,12.50
2023-02-28T00:13:26.797Z,11.07
2023-02-28T00:16:08.293Z,13.43
2023-02-28T00:18:40.409Z,12.13
2023-02-28T00:21:12.216Z,12.20
2023-02-28T00:23:44.764Z,13.05
2023-02-28T00:26:21.587Z,11.85
2023-02-28T00:28:55.493Z,11.07
2023-02-28T00:31:28.788Z,13.60
2023-02-28T00:34:00.725Z,16.10
2023-02-28T00:36:32.744Z,14.32
2023-02-28T00:39:04.540Z,13.18
2023-02-28T00:41:36.282Z,12.77
2023-02-28T00:44:08.151Z,12.00
2023-02-28T00:46:40.965Z,13.65
2023-02-28T00:49:12.675Z,13.25
2023-02-28T00:51:51.135Z,13.55
2023-02-28T00:54:25.759Z,11.52
2023-02-28T00:56:59.989Z,12.25
2023-02-28T00:59:35.868Z,14.57
2023-02-28T01:02:11.640Z,13.77
2023-02-28T01:04:45.309Z,11.50
2023-02-28T01:07:17.113Z,11.60
2023-02-28T01:09:50.083Z,13.68
2023-02-28T01:12:21.796Z,12.05
2023-02-28T01:14:53.485Z,16.58
2023-02-28T01:17:27.485Z,14.02
2023-02-28T01:20:00.400Z,11.82
2023-02-28T01:22:39.678Z,12.68
2023-02-28T01:25:15.993Z,12.15
2023-02-28T01:27:47.791Z,13.82
2023-02-28T01:30:19.515Z,12.02
2023-02-28T01:32:54.528Z,12.82
2023-02-28T01:35:29.169Z,11.75
2023-02-28T01:38:12.333Z,14.63
2023-02-28T01:40:55.628Z,15.63
2023-02-28T01:46:21.531Z,16.00
2023-02-28T01:49:06.437Z,11.85
2023-02-28T01:51:56.029Z,14.50
2023-02-28T01:54:34.741Z,12.80
2023-02-28T01:57:17.646Z,13.18
2023-02-28T01:59:59.548Z,12.13
2023-02-28T02:02:33.250Z,17.38
2023-02-28T02:05:08.808Z,12.48
2023-02-28T02:07:44.853Z,11.73
2023-02-28T02:10:31.066Z,10.57
2023-02-28T02:13:36.542Z,14.68
2023-02-28T02:19:15.298Z,15.65
2023-02-28T02:22:21.315Z,13.25
2023-02-28T02:25:23.855Z,12.77
2023-02-28T02:28:23.265Z,14.30
2023-02-28T02:31:14.996Z,17.65
2023-02-28T02:34:06.757Z,12.27
2023-02-28T02:36:41.644Z,13.45
2023-02-28T02:39:49.690Z,12.15
2023-02-28T02:42:54.472Z,8.68
2023-02-28T02:45:32.815Z,8.88
2023-02-28T02:48:11.266Z,13.93
2023-02-28T02:51:23.112Z,10.07
2023-02-28T02:54:29.584Z,12.50
2023-02-28T02:57:06.846Z,9.85
2023-02-28T02:59:41.793Z,12.63
2023-02-28T03:02:17.205Z,11.60
2023-02-28T03:05:01.572Z,11.32
2023-02-28T03:07:36.522Z,12.80
2023-02-28T03:13:36.429Z,12.20
2023-02-28T03:16:38.633Z,12.05
2023-02-28T03:19:22.938Z,13.57
2023-02-28T03:22:17.349Z,10.02
2023-02-28T03:24:49.268Z,12.20
2023-02-28T03:27:37.796Z,13.68
2023-02-28T03:30:34.313Z,14.10
2023-02-28T03:33:15.735Z,12.82
2023-02-28T03:36:11.242Z,12.98
2023-02-28T03:38:50.285Z,12.75
2023-02-28T03:41:40.026Z,10.77
2023-02-28T03:44:19.533Z,12.77
2023-02-28T03:46:59.619Z,11.15
2023-02-28T03:49:59.470Z,11.10
2023-02-28T03:52:40.239Z,13.40
2023-02-28T03:55:15.674Z,14.30
2023-02-28T03:58:02.521Z,11.50
2023-02-28T04:00:44.761Z,14.02
2023-02-28T04:03:16.992Z,12.05
2023-02-28T04:05:53.237Z,15.57
2023-02-28T04:08:25.105Z,11.32
2023-02-28T04:11:18.500Z,14.95
2023-02-28T04:13:53.564Z,15.30
2023-02-28T04:19:09.100Z,10.70
2023-02-28T04:21:46.391Z,13.50
2023-02-28T04:24:25.772Z,11.90
2023-02-28T04:26:59.956Z,13.55
2023-02-28T04:29:45.592Z,13.53
2023-02-28T04:32:18.946Z,13.20
2023-02-28T04:34:56.765Z,14.93
2023-02-28T04:37:29.854Z,13.10
2023-02-28T04:40:05.136Z,14.25
2023-02-28T04:42:36.899Z,14.30
2023-02-28T04:45:12.327Z,16.42
2023-02-28T04:47:44.057Z,8.80
2023-02-28T04:50:16.217Z,11.68
2023-02-28T04:52:50.801Z,12.52
2023-02-28T04:55:24.480Z,11.25
2023-02-28T04:57:56.173Z,13.07
2023-02-28T05:00:27.921Z,12.95
2023-02-28T05:02:59.615Z,14.10
2023-02-28T05:05:34.537Z,17.33
2023-02-28T05:10:50.513Z,12.85
2023-02-28T05:13:22.157Z,14.50
2023-02-28T05:15:54.991Z,16.58
2023-02-28T05:18:26.653Z,15.10
2023-02-28T05:20:58.382Z,14.10
2023-02-28T05:23:33.380Z,12.98
2023-02-28T05:26:05.349Z,12.93
2023-02-28T05:28:37.322Z,11.98
2023-02-28T05:31:28.725Z,14.55
2023-02-28T05:34:07.546Z,13.90
2023-02-28T05:36:42.728Z,12.88
2023-02-28T05:39:14.576Z,14.52
2023-02-28T05:41:46.303Z,17.63
2023-02-28T05:44:18.061Z,14.00
2023-02-28T05:46:49.786Z,13.13
2023-02-28T05:49:24.204Z,14.27
2023-02-28T05:51:55.996Z,16.02
2023-02-28T05:54:27.648Z,16.48
2023-02-28T05:56:59.468Z,11.43
2023-02-28T05:59:32.264Z,14.40
2023-02-28T06:02:04.372Z,13.35
2023-02-28T06:04:36.098Z,10.85
2023-02-28T06:07:12.758Z,23.13
2023-02-28T06:09:44.493Z,15.05
2023-02-28T06:12:16.242Z,17.00
2023-02-28T06:14:47.939Z,14.50
2023-02-28T06:17:19.647Z,14.77
2023-02-28T06:19:52.521Z,17.48
2023-02-28T06:22:24.279Z,16.98
2023-02-28T06:24:56.043Z,13.70
2023-02-28T06:27:27.765Z,12.90
2023-02-28T06:29:59.498Z,15.65
2023-02-28T06:32:34.269Z,12.38
2023-02-28T06:37:39.085Z,16.20
2023-02-28T06:40:14.061Z,14.27
2023-02-28T06:42:46.110Z,12.82
2023-02-28T06:45:18.220Z,11.68
2023-02-28T06:47:53.250Z,11.50
2023-02-28T06:50:28.640Z,10.85
2023-02-28T06:53:00.388Z,12.95
2023-02-28T06:55:32.437Z,12.57
2023-02-28T06:58:14.592Z,12.00
2023-02-28T07:00:53.742Z,14.17
2023-02-28T07:03:28.316Z,13.02
2023-02-28T07:06:00.200Z,12.95
2023-02-28T07:08:33.333Z,13.98
2023-02-28T07:11:05.582Z,13.15
2023-02-28T07:13:43.156Z,14.60
2023-02-28T07:16:14.911Z,11.65
2023-02-28T07:18:46.992Z,10.65
2023-02-28T07:21:25.778Z,11.13
2023-02-28T07:24:00.421Z,13.77
2023-02-28T07:26:35.518Z,12.93
2023-02-28T07:29:09.647Z,11.95
2023-02-28T07:31:41.432Z,11.23
2023-02-28T07:34:14.212Z,12.10
2023-02-28T07:36:49.061Z,12.25
2023-02-28T07:39:26.968Z,10.25
2023-02-28T07:42:06.039Z,12.88
2023-02-28T07:44:41.748Z,11.88
2023-02-28T07:47:13.448Z,15.43
2023-02-28T07:49:46.351Z,11.93
2023-02-28T07:52:18.152Z,11.25
2023-02-28T07:54:51.530Z,13.93
2023-02-28T07:57:29.110Z,10.95
2023-02-28T08:00:06.286Z,14.02
2023-02-28T08:02:52.306Z,16.17
2023-02-28T08:05:26.178Z,12.88
2023-02-28T08:07:58.240Z,14.20
2023-02-28T08:10:30.008Z,15.10
2023-02-28T08:13:01.731Z,13.25
2023-02-28T08:18:30.818Z,15.32
2023-02-28T08:21:10.941Z,12.68
2023-02-28T08:23:42.860Z,11.50
2023-02-28T08:26:14.985Z,12.52
2023-02-28T08:28:49.191Z,11.95
2023-02-28T08:31:21.044Z,15.20
2023-02-28T08:33:54.340Z,13.65
2023-02-28T08:36:27.714Z,13.75
2023-02-28T08:39:00.653Z,15.32
2023-02-28T08:41:33.029Z,13.25
2023-02-28T08:44:04.939Z,13.02
2023-02-28T08:49:33.220Z,12.57
2023-02-28T08:52:05.001Z,12.65
2023-02-28T08:54:37.245Z,12.85
2023-02-28T08:57:09.080Z,14.63
2023-02-28T08:59:40.783Z,13.70
2023-02-28T09:02:21.558Z,14.00
2023-02-28T09:04:54.522Z,13.80
2023-02-28T09:07:29.432Z,12.70
2023-02-28T09:10:05.622Z,13.65
2023-02-28T09:12:37.501Z,15.95
2023-02-28T09:15:10.992Z,13.25
2023-02-28T09:17:44.419Z,13.13
2023-02-28T09:20:17.679Z,10.55
2023-02-28T09:22:49.697Z,11.63
2023-02-28T09:25:24.384Z,10.07
2023-02-28T09:27:58.465Z,12.60
2023-02-28T09:30:31.315Z,10.80
2023-02-28T09:35:39.508Z,10.10
2023-02-28T09:38:12.406Z,10.90
2023-02-28T09:41:14.064Z,12.13
2023-02-28T09:43:57.891Z,9.98
2023-02-28T09:46:45.095Z,10.27
2023-02-28T09:49:27.063Z,11.70
2023-02-28T09:52:10.815Z,15.98
2023-02-28T09:54:43.227Z,15.82
2023-02-28T09:57:30.884Z,12.55
2023-02-28T10:00:17.464Z,11.38
2023-02-28T10:03:28.851Z,15.05
2023-02-28T10:06:13.252Z,11.65
2023-02-28T10:09:10.293Z,13.20
2023-02-28T10:11:49.766Z,12.52
2023-02-28T10:14:27.280Z,13.45
2023-02-28T10:17:26.169Z,12.13
2023-02-28T10:20:08.858Z,12.85
2023-02-28T10:23:08.571Z,16.20
2023-02-28T10:25:41.074Z,12.02
2023-02-28T10:28:19.596Z,13.40
2023-02-28T10:30:58.024Z,14.32
2023-02-28T10:33:36.306Z,11.63
2023-02-28T10:36:15.655Z,10.68
2023-02-28T10:38:48.949Z,12.30
2023-02-28T10:41:37.327Z,13.88
2023-02-28T10:44:23.099Z,15.55
2023-02-28T10:46:57.720Z,12.32
2023-02-28T10:49:31.536Z,13.07
2023-02-28T10:52:03.273Z,11.63
2023-02-28T10:54:38.842Z,11.77
2023-02-28T10:57:29.488Z,12.77
2023-02-28T11:00:32.974Z,14.48
2023-02-28T11:03:35.017Z,15.38
2023-02-28T11:06:16.224Z,12.15
2023-02-28T11:08:52.106Z,12.48
2023-02-28T11:14:06.973Z,11.05
2023-02-28T11:17:31.744Z,17.38
2023-02-28T11:20:08.242Z,10.98
2023-02-28T11:22:46.251Z,12.23
2023-02-28T11:25:25.132Z,12.40
2023-02-28T11:28:13.090Z,23.58
2023-02-28T11:31:00.429Z,22.30
2023-02-28T11:33:51.859Z,12.82
2023-02-28T11:36:30.291Z,16.40
2023-02-28T11:39:14.122Z,15.00
2023-02-28T11:42:16.436Z,14.93
2023-02-28T11:45:16.212Z,16.00
2023-02-28T11:48:24.239Z,13.00
2023-02-28T11:51:39.634Z,14.98
2023-02-28T11:54:20.120Z,12.73
2023-02-28T11:57:01.143Z,15.10
2023-02-28T11:59:50.959Z,14.35
2023-02-28T12:02:50.678Z,15.30
2023-02-28T12:06:09.849Z,13.50
2023-02-28T12:09:12.002Z,11.93
2023-02-28T12:12:29.378Z,16.17
2023-02-28T12:15:37.224Z,11.13
2023-02-28T12:18:23.975Z,17.63
2023-02-28T12:21:12.533Z,14.23
2023-02-28T12:24:15.147Z,14.05
2023-02-28T12:26:50.369Z,12.82
2023-02-28T12:29:33.431Z,12.38
2023-02-28T12:32:10.831Z,17.92
2023-02-28T12:34:48.785Z,17.55
2023-02-28T12:37:32.809Z,15.82
2023-02-28T12:40:12.113Z,16.92
2023-02-28T12:42:51.002Z,14.60
2023-02-28T12:45:22.699Z,15.18
2023-02-28T12:48:03.970Z,12.88
2023-02-28T12:50:37.163Z,16.27
2023-02-28T12:53:21.115Z,13.25
2023-02-28T12:56:16.104Z,14.43
2023-02-28T12:59:06.094Z,14.43
2023-02-28T13:02:02.964Z,13.68
2023-02-28T13:05:10.938Z,14.30
2023-02-28T13:08:13.412Z,14.30
2023-02-28T13:11:02.243Z,14.90
2023-02-28T13:13:38.702Z,13.43
2023-02-28T13:16:11.622Z,14.85
2023-02-28T13:18:48.143Z,16.52
2023-02-28T13:21:29.484Z,19.85
2023-02-28T13:24:12.905Z,14.68
2023-02-28T13:26:53.172Z,13.63
2023-02-28T13:29:42.978Z,14.32
2023-02-28T13:32:31.305Z,13.32
2023-02-28T13:35:05.964Z,14.02
2023-02-28T13:37:44.077Z,12.65
2023-02-28T13:40:38.802Z,15.93
2023-02-28T13:43:10.664Z,14.68
2023-02-28T13:46:21.985Z,13.63
2023-02-28T13:48:54.133Z,14.25
2023-02-28T13:51:57.915Z,13.93
2023-02-28T13:55:00.859Z,16.15
2023-02-28T13:58:03.054Z,13.73
2023-02-28T14:01:00.989Z,14.73
2023-02-28T14:03:59.688Z,13.63
2023-02-28T14:06:34.429Z,16.10
2023-02-28T14:09:27.163Z,16.63
2023-02-28T14:12:37.464Z,16.52
2023-02-28T14:15:34.836Z,13.95
2023-02-28T14:18:14.804Z,16.05
2023-02-28T14:20:48.818Z,15.55
2023-02-28T14:23:23.187Z,16.52
2023-02-28T14:26:23.481Z,17.98
2023-02-28T14:29:19.730Z,16.00
2023-02-28T14:32:07.033Z,13.38
2023-02-28T14:37:37.468Z,16.50
2023-02-28T14:40:30.170Z,15.70
2023-02-28T14:43:05.104Z,16.55
2023-02-28T14:45:38.438Z,14.23
2023-02-28T14:48:13.781Z,15.80
2023-02-28T14:50:52.094Z,18.05
2023-02-28T14:53:28.554Z,19.20
2023-02-28T14:56:03.326Z,17.65
2023-02-28T15:01:07.825Z,14.48
2023-02-28T15:04:07.220Z,18.58
2023-02-28T15:06:38.939Z,15.50
2023-02-28T15:09:17.976Z,14.25
2023-02-28T15:11:51.247Z,16.98
2023-02-28T15:14:26.299Z,14.93
2023-02-28T15:17:03.427Z,14.80
2023-02-28T15:19:41.413Z,16.05
2023-02-28T15:22:19.071Z,15.57
2023-02-28T15:24:54.747Z,15.40
2023-02-28T15:27:32.124Z,15.68
2023-02-28T15:30:35.111Z,16.33
2023-02-28T15:33:13.025Z,17.85
2023-02-28T15:35:45.490Z,14.68
2023-02-28T15:38:26.198Z,18.27
2023-02-28T15:41:01.811Z,18.08
2023-02-28T15:43:38.521Z,16.52
2023-02-28T15:46:16.820Z,17.83
2023-02-28T15:48:58.391Z,16.13
2023-02-28T15:51:40.779Z,18.02
2023-02-28T15:54:20.107Z,16.50
2023-02-28T15:56:54.897Z,16.75
2023-02-28T15:59:31.213Z,16.95
2023-02-28T16:02:22.374Z,17.52
2023-02-28T16:05:19.047Z,17.23
2023-02-28T16:07:50.698Z,20.27
2023-02-28T16:10:26.941Z,18.85
2023-02-28T16:12:58.900Z,17.98
2023-02-28T16:15:36.358Z,18.55
2023-02-28T16:18:11.274Z,17.23
2023-02-28T16:20:45.466Z,17.83
2023-02-28T16:23:17.210Z,16.42
2023-02-28T16:25:53.253Z,15.65
2023-02-28T16:28:33.719Z,14.95
2023-02-28T16:31:08.452Z,16.90
2023-02-28T16:33:41.083Z,15.30
2023-02-28T16:36:22.781Z,20.58
2023-02-28T16:38:55.957Z,17.38
2023-02-28T16:41:29.449Z,16.20
2023-02-28T16:44:04.958Z,18.25
2023-02-28T16:46:37.310Z,16.60
2023-02-28T16:49:13.891Z,20.05
2023-02-28T16:51:48.572Z,15.95
2023-02-28T16:54:20.694Z,16.80
2023-02-28T16:56:57.323Z,15.02
2023-02-28T16:59:33.109Z,16.90
2023-02-28T17:02:16.105Z,16.58
2023-02-28T17:04:48.220Z,19.05
2023-02-28T17:07:21.351Z,18.35
2023-02-28T17:09:57.545Z,19.33
2023-02-28T17:12:29.315Z,15.35
2023-02-28T17:15:04.640Z,16.50
2023-02-28T17:17:39.027Z,18.05
2023-02-28T17:20:25.432Z,19.40
2023-02-28T17:22:57.498Z,16.33
2023-02-28T17:25:29.240Z,18.85
2023-02-28T17:28:03.721Z,16.45
2023-02-28T17:30:36.206Z,19.42
2023-02-28T17:33:08.065Z,19.92
2023-02-28T17:35:40.222Z,19.65
2023-02-28T17:38:23.259Z,19.98
2023-02-28T17:40:58.223Z,18.15
2023-02-28T17:43:30.097Z,18.00
2023-02-28T17:46:02.405Z,18.10
2023-02-28T17:48:36.961Z,23.45
2023-02-28T17:51:12.649Z,25.75
2023-02-28T17:53:44.982Z,24.17
2023-02-28T17:56:26.987Z,32.30
2023-02-28T17:59:09.101Z,26.10
2023-02-28T18:01:41.118Z,24.25
2023-02-28T18:04:16.931Z,24.08
2023-02-28T18:06:54.900Z,27.47
2023-02-28T18:09:28.052Z,28.48
2023-02-28T18:12:03.076Z,26.45
2023-02-28T18:14:40.659Z,25.42
2023-02-28T18:17:25.606Z,27.75
2023-02-28T18:20:16.489Z,25.15
2023-02-28T18:22:56.838Z,24.08
2023-02-28T18:26:00.666Z,31.30
2023-02-28T18:28:35.342Z,30.70
2023-02-28T18:31:25.349Z,24.42
2023-02-28T18:34:15.929Z,31.45
2023-02-28T18:36:54.901Z,27.48
2023-02-28T18:39:30.389Z,29.63
2023-02-28T18:42:02.098Z,26.70
2023-02-28T18:44:33.845Z,27.33
2023-02-28T18:47:11.664Z,29.85
2023-02-28T18:50:26.051Z,29.40
2023-02-28T18:53:06.037Z,25.02
2023-02-28T18:55:42.357Z,25.35
2023-02-28T18:58:18.077Z,26.60
2023-02-28T19:00:55.208Z,26.75
2023-02-28T19:03:35.762Z,28.02
2023-02-28T19:06:09.837Z,26.77
2023-02-28T19:08:56.321Z,24.08
2023-02-28T19:11:47.254Z,26.85
2023-02-28T19:14:24.828Z,27.00
2023-02-28T19:17:09.089Z,30.10
2023-02-28T19:20:22.046Z,26.30
2023-02-28T19:23:15.420Z,27.77
2023-02-28T19:29:02.621Z,27.50
2023-02-28T19:31:34.789Z,31.33
2023-02-28T19:34:07.292Z,29.58
2023-02-28T19:36:39.075Z,30.42
2023-02-28T19:39:11.652Z,29.38
2023-02-28T19:41:43.662Z,29.23
2023-02-28T19:44:15.472Z,30.15
2023-02-28T19:46:47.384Z,29.92
2023-02-28T19:49:19.172Z,29.73
2023-02-28T19:51:50.947Z,30.77
2023-02-28T19:54:23.613Z,34.13
2023-02-28T19:56:57.612Z,34.22
2023-02-28T19:59:38.186Z,35.55
2023-02-28T20:02:20.720Z,38.30
2023-02-28T20:04:54.333Z,32.80
2023-02-28T20:07:32.519Z,37.30
2023-02-28T20:10:05.103Z,39.10
2023-02-28T20:12:40.183Z,34.72
2023-02-28T20:15:12.605Z,36.22
2023-02-28T20:17:49.433Z,37.33
2023-02-28T20:20:23.221Z,35.13
2023-02-28T20:22:57.239Z,38.70
2023-02-28T20:25:33.364Z,35.92
2023-02-28T20:30:39.480Z,40.20
2023-02-28T20:33:11.591Z,44.17
2023-02-28T20:35:43.912Z,39.08
2023-02-28T20:38:21.556Z,38.80
2023-02-28T20:40:59.279Z,35.63
2023-02-28T20:43:58.242Z,37.53
2023-02-28T20:46:31.561Z,33.67
2023-02-28T20:49:04.901Z,32.70
2023-02-28T20:51:40.253Z,32.50
2023-02-28T20:54:12.093Z,33.92
2023-02-28T20:56:44.242Z,34.65
2023-02-28T20:59:20.958Z,36.25
2023-02-28T21:01:54.108Z,35.35
2023-02-28T21:04:25.889Z,31.92
2023-02-28T21:07:05.502Z,30.23
2023-02-28T21:09:45.994Z,33.53
2023-02-28T21:12:18.591Z,35.75
2023-02-28T21:14:52.931Z,31.05
2023-02-28T21:17:25.025Z,35.65
2023-02-28T21:19:56.739Z,36.35
2023-02-28T21:22:34.825Z,34.10
2023-02-28T21:25:07.232Z,36.63
2023-02-28T21:27:39.002Z,35.75
2023-02-28T21:30:12.276Z,41.10
2023-02-28T21:32:46.731Z,42.60
2023-02-28T21:35:18.575Z,38.97
2023-02-28T21:37:50.632Z,39.83
2023-02-28T21:40:25.460Z,33.35
2023-02-28T21:45:29.293Z,30.70
2023-02-28T21:48:01.888Z,40.10
2023-02-28T21:50:33.880Z,39.63
2023-02-28T21:53:08.306Z,34.25
2023-02-28T21:55:40.379Z,37.78
2023-02-28T22:00:46.640Z,37.03
2023-02-28T22:03:21.408Z,36.80
2023-02-28T22:05:54.368Z,40.25
2023-02-28T22:08:26.486Z,38.95
2023-02-28T22:11:02.889Z,34.80
2023-02-28T22:13:35.278Z,39.00
2023-02-28T22:16:12.548Z,40.97
2023-02-28T22:18:45.320Z,36.55
2023-02-28T22:21:23.646Z,36.55
2023-02-28T22:23:55.357Z,40.80
2023-02-28T22:26:27.151Z,39.78
2023-02-28T22:28:58.915Z,43.35
2023-02-28T22:31:33.134Z,43.47
2023-02-28T22:34:12.386Z,41.30
2023-02-28T22:36:44.407Z,44.08
2023-02-28T22:39:18.460Z,44.85
2023-02-28T22:41:50.120Z,43.88
2023-02-28T22:44:23.028Z,40.83
2023-02-28T22:46:55.161Z,41.78
2023-02-28T22:49:27.234Z,44.08
2023-02-28T22:51:59.466Z,45.05
2023-02-28T22:54:39.902Z,45.95
2023-02-28T22:57:12.568Z,42.33
2023-02-28T22:59:44.747Z,46.55
2023-02-28T23:02:16.959Z,47.15
2023-02-28T23:04:48.709Z,41.80
2023-02-28T23:07:22.475Z,43.83
2023-02-28T23:09:54.797Z,46.10
2023-02-28T23:12:27.252Z,49.20
2023-02-28T23:15:00.849Z,42.42
2023-02-28T23:17:35.561Z,44.08
2023-02-28T23:20:07.752Z,46.03
2023-02-28T23:22:46.511Z,43.20
2023-02-28T23:25:23.959Z,47.33
2023-02-28T23:27:55.930Z,47.40
2023-02-28T23:30:28.102Z,42.75
2023-02-28T23:33:03.003Z,46.05
2023-02-28T23:35:37.375Z,44.17
2023-02-28T23:38:12.162Z,45.88
2023-02-28T23:43:15.367Z,43.38
2023-02-28T23:45:55.663Z,41.72
2023-02-28T23:48:33.668Z,47.80
2023-02-28T23:51:16.681Z,46.50
2023-02-28T23:53:52.518Z,42.50
2023-02-28T23:56:25.571Z,43.10
2023-02-28T23:58:58.047Z,43.65
